Bedwas, United Kingdom
Current Conditions -  °F | °C
As of 4:50 AM on Friday 21 Nov 2014 (Local Time) from EGFF Reporting Station
Overcast Overcast  
Wind Chill:   Ceiling: 1900
Heat Index:   Visibility: 5mi
Dew Point:   Wind: 14mph
Humidity: 93%   Direction: 70°ENE
Pressure: 30.06"   Gusts: NA
Location:  51.59°N, 3.2°W
Report Text: EGFF 210450Z 07012KT 8000 OVC019 08/07 Q1018
Loading
Personal Weather Stations






























Interactive Weather Map New forecast layout! Learn more

10-Day Weather Forecast

Advertisements
Track Severe Weather on mobile